sensor_id;sensor_type;location;lat;lon;timestamp;pressure;altitude;pressure_sealevel;temperature;humidity
4346;BME280;2186;49.866;7.986;2023-02-28T00:01:22;101359.88;;;0.13;82.09
4346;BME280;2186;49.866;7.986;2023-02-28T00:03:48;101346.25;;;0.23;80.71
4346;BME280;2186;49.866;7.986;2023-02-28T00:06:15;101344.53;;;0.24;80.31
4346;BME280;2186;49.866;7.986;2023-02-28T00:08:41;101342.16;;;0.32;81.04
4346;BME280;2186;49.866;7.986;2023-02-28T00:11:12;101347.47;;;0.35;80.75
4346;BME280;2186;49.866;7.986;2023-02-28T00:13:42;101340.75;;;0.43;80.76
4346;BME280;2186;49.866;7.986;2023-02-28T00:16:11;101345.69;;;0.34;81.06
4346;BME280;2186;49.866;7.986;2023-02-28T00:18:37;101349.31;;;0.10;81.04
4346;BME280;2186;49.866;7.986;2023-02-28T00:21:04;101347.50;;;0.08;81.83
4346;BME280;2186;49.866;7.986;2023-02-28T00:23:31;101348.78;;;0.20;81.22
4346;BME280;2186;49.866;7.986;2023-02-28T00:25:58;101354.09;;;-0.05;82.06
4346;BME280;2186;49.866;7.986;2023-02-28T00:28:25;101347.44;;;0.05;81.50
4346;BME280;2186;49.866;7.986;2023-02-28T00:30:51;101345.31;;;0.21;81.18
4346;BME280;2186;49.866;7.986;2023-02-28T00:33:18;101356.38;;;0.13;80.67
4346;BME280;2186;49.866;7.986;2023-02-28T00:35:44;101343.78;;;0.28;81.54
4346;BME280;2186;49.866;7.986;2023-02-28T00:38:15;101346.63;;;0.36;80.68
4346;BME280;2186;49.866;7.986;2023-02-28T00:40:42;101347.56;;;0.09;80.78
4346;BME280;2186;49.866;7.986;2023-02-28T00:43:09;101355.75;;;-0.07;81.86
4346;BME280;2186;49.866;7.986;2023-02-28T00:45:35;101353.25;;;-0.04;81.72
4346;BME280;2186;49.866;7.986;2023-02-28T00:48:02;101351.28;;;-0.11;82.57
4346;BME280;2186;49.866;7.986;2023-02-28T00:50:28;101341.28;;;-0.24;83.27
4346;BME280;2186;49.866;7.986;2023-02-28T00:52:55;101337.94;;;-0.20;83.10
4346;BME280;2186;49.866;7.986;2023-02-28T00:55:21;101346.78;;;-0.15;83.40
4346;BME280;2186;49.866;7.986;2023-02-28T00:57:48;101347.28;;;0.00;82.72
4346;BME280;2186;49.866;7.986;2023-02-28T01:00:14;101339.88;;;0.14;82.45
4346;BME280;2186;49.866;7.986;2023-02-28T01:02:41;101347.56;;;0.09;82.40
4346;BME280;2186;49.866;7.986;2023-02-28T01:05:08;101344.06;;;0.09;81.75
4346;BME280;2186;49.866;7.986;2023-02-28T01:07:34;101349.91;;;0.28;81.71
4346;BME280;2186;49.866;7.986;2023-02-28T01:10:01;101345.28;;;0.20;81.72
4346;BME280;2186;49.866;7.986;2023-02-28T01:12:27;101340.97;;;0.22;81.56
4346;BME280;2186;49.866;7.986;2023-02-28T01:14:56;101340.69;;;0.13;81.51
4346;BME280;2186;49.866;7.986;2023-02-28T01:17:22;101337.94;;;-0.20;83.26
4346;BME280;2186;49.866;7.986;2023-02-28T01:19:49;101338.41;;;-0.05;82.79
4346;BME280;2186;49.866;7.986;2023-02-28T01:22:15;101342.78;;;-0.04;82.46
4346;BME280;2186;49.866;7.986;2023-02-28T01:24:42;101340.88;;;-0.10;82.78
4346;BME280;2186;49.866;7.986;2023-02-28T01:27:08;101340.44;;;-0.50;84.47
4346;BME280;2186;49.866;7.986;2023-02-28T01:29:35;101339.66;;;-0.48;85.44
4346;BME280;2186;49.866;7.986;2023-02-28T01:32:01;101331.72;;;-0.76;86.56
4346;BME280;2186;49.866;7.986;2023-02-28T01:34:27;101339.41;;;-0.81;86.86
4346;BME280;2186;49.866;7.986;2023-02-28T01:36:54;101338.63;;;-0.78;87.48
4346;BME280;2186;49.866;7.986;2023-02-28T01:39:20;101339.56;;;-0.76;87.81
4346;BME280;2186;49.866;7.986;2023-02-28T01:41:47;101336.06;;;-0.77;88.27
4346;BME280;2186;49.866;7.986;2023-02-28T01:47:18;101331.38;;;-0.35;87.25
4346;BME280;2186;49.866;7.986;2023-02-28T01:49:45;101333.72;;;-0.15;86.30
4346;BME280;2186;49.866;7.986;2023-02-28T01:52:12;101327.88;;;-0.08;86.96
4346;BME280;2186;49.866;7.986;2023-02-28T01:55:04;101321.09;;;-0.28;86.80
4346;BME280;2186;49.866;7.986;2023-02-28T01:57:34;101328.81;;;-0.33;87.21
4346;BME280;2186;49.866;7.986;2023-02-28T02:00:09;101332.09;;;-0.66;87.98
4346;BME280;2186;49.866;7.986;2023-02-28T02:02:43;101327.91;;;-0.61;88.74
4346;BME280;2186;49.866;7.986;2023-02-28T02:05:19;101334.81;;;-0.63;88.77
4346;BME280;2186;49.866;7.986;2023-02-28T02:07:48;101321.72;;;-0.64;89.37
4346;BME280;2186;49.866;7.986;2023-02-28T02:10:18;101325.84;;;-0.17;89.10
4346;BME280;2186;49.866;7.986;2023-02-28T02:15:34;101315.88;;;-0.28;88.99
4346;BME280;2186;49.866;7.986;2023-02-28T02:18:20;101314.94;;;-0.31;89.46
4346;BME280;2186;49.866;7.986;2023-02-28T02:21:09;101316.44;;;-0.12;88.70
4346;BME280;2186;49.866;7.986;2023-02-28T02:26:55;101318.38;;;-0.05;88.55
4346;BME280;2186;49.866;7.986;2023-02-28T02:35:27;101309.88;;;0.01;88.85
4346;BME280;2186;49.866;7.986;2023-02-28T02:38:08;101306.97;;;-0.08;89.16
4346;BME280;2186;49.866;7.986;2023-02-28T02:40:43;101307.28;;;0.03;89.55
4346;BME280;2186;49.866;7.986;2023-02-28T02:43:26;101310.25;;;-0.14;90.64
4346;BME280;2186;49.866;7.986;2023-02-28T02:45:59;101311.97;;;-0.14;89.69
4346;BME280;2186;49.866;7.986;2023-02-28T02:48:33;101312.88;;;-0.14;90.59
4346;BME280;2186;49.866;7.986;2023-02-28T02:51:04;101301.66;;;-0.11;90.22
4346;BME280;2186;49.866;7.986;2023-02-28T02:53:42;101315.31;;;-0.20;89.99
4346;BME280;2186;49.866;7.986;2023-02-28T02:56:12;101309.38;;;-0.14;90.19
4346;BME280;2186;49.866;7.986;2023-02-28T02:58:41;101310.22;;;-0.15;90.73
4346;BME280;2186;49.866;7.986;2023-02-28T03:01:20;101310.97;;;-0.19;90.58
4346;BME280;2186;49.866;7.986;2023-02-28T03:03:59;101313.72;;;-0.15;91.69
4346;BME280;2186;49.866;7.986;2023-02-28T03:06:27;101315.84;;;-0.30;90.99
4346;BME280;2186;49.866;7.986;2023-02-28T03:08:54;101308.25;;;-0.22;91.53
4346;BME280;2186;49.866;7.986;2023-02-28T03:11:21;101303.88;;;-0.23;90.96
4346;BME280;2186;49.866;7.986;2023-02-28T03:14:15;101310.97;;;-0.19;91.24
4346;BME280;2186;49.866;7.986;2023-02-28T03:20:17;101298.91;;;-0.14;91.44
4346;BME280;2186;49.866;7.986;2023-02-28T03:23:28;101305.03;;;-0.14;91.76
4346;BME280;2186;49.866;7.986;2023-02-28T03:25:56;101310.97;;;-0.19;91.92
4346;BME280;2186;49.866;7.986;2023-02-28T03:28:36;101302.75;;;-0.03;91.24
4346;BME280;2186;49.866;7.986;2023-02-28T03:31:33;101309.97;;;-0.23;90.71
4346;BME280;2186;49.866;7.986;2023-02-28T03:34:10;101301.47;;;-0.16;90.80
4346;BME280;2186;49.866;7.986;2023-02-28T03:36:46;101303.88;;;-0.23;91.78
4346;BME280;2186;49.866;7.986;2023-02-28T03:39:23;101299.25;;;-0.32;91.14
4346;BME280;2186;49.866;7.986;2023-02-28T03:41:58;101299.44;;;-0.26;90.68
4346;BME280;2186;49.866;7.986;2023-02-28T03:47:03;101298.66;;;-0.23;90.95
4346;BME280;2186;49.866;7.986;2023-02-28T03:49:36;101299.31;;;-0.29;91.13
4346;BME280;2186;49.866;7.986;2023-02-28T03:52:07;101297.41;;;-0.35;91.30
4346;BME280;2186;49.866;7.986;2023-02-28T03:54:39;101309.00;;;-0.26;90.45
4346;BME280;2186;49.866;7.986;2023-02-28T04:00:08;101307.97;;;-0.32;90.22
4346;BME280;2186;49.866;7.986;2023-02-28T04:02:39;101308.22;;;-0.24;90.11
4346;BME280;2186;49.866;7.986;2023-02-28T04:05:06;101314.06;;;-0.31;90.25
4346;BME280;2186;49.866;7.986;2023-02-28T04:07:34;101309.72;;;-0.31;90.26
4346;BME280;2186;49.866;7.986;2023-02-28T04:10:00;101311.31;;;-0.36;90.17
4346;BME280;2186;49.866;7.986;2023-02-28T04:12:27;101306.09;;;-0.36;90.42
4346;BME280;2186;49.866;7.986;2023-02-28T04:14:53;101306.06;;;-0.37;89.55
4346;BME280;2186;49.866;7.986;2023-02-28T04:17:20;101307.81;;;-0.36;89.77
4346;BME280;2186;49.866;7.986;2023-02-28T04:19:46;101313.13;;;-0.33;89.78
4346;BME280;2186;49.866;7.986;2023-02-28T04:22:13;101315.31;;;-0.47;90.02
4346;BME280;2186;49.866;7.986;2023-02-28T04:24:39;101316.53;;;-0.63;90.95
4346;BME280;2186;49.866;7.986;2023-02-28T04:27:09;101315.56;;;-0.66;90.17
4346;BME280;2186;49.866;7.986;2023-02-28T04:29:36;101318.72;;;-0.75;90.55
4346;BME280;2186;49.866;7.986;2023-02-28T04:32:03;101319.38;;;-0.55;90.25
4346;BME280;2186;49.866;7.986;2023-02-28T04:34:31;101309.53;;;-0.64;90.00
4346;BME280;2186;49.866;7.986;2023-02-28T04:36:59;101315.78;;;-0.58;90.50
4346;BME280;2186;49.866;7.986;2023-02-28T04:39:42;101308.88;;;-0.56;90.13
4346;BME280;2186;49.866;7.986;2023-02-28T04:42:10;101310.56;;;-0.58;90.07
4346;BME280;2186;49.866;7.986;2023-02-28T04:44:37;101310.78;;;-0.52;89.97
4346;BME280;2186;49.866;7.986;2023-02-28T04:47:03;101309.28;;;-0.44;89.25
4346;BME280;2186;49.866;7.986;2023-02-28T04:49:30;101313.41;;;-0.52;88.95
4346;BME280;2186;49.866;7.986;2023-02-28T04:51:57;101313.28;;;-0.55;88.70
4346;BME280;2186;49.866;7.986;2023-02-28T04:54:23;101308.31;;;-0.48;89.05
4346;BME280;2186;49.866;7.986;2023-02-28T04:56:50;101313.13;;;-0.60;89.02
4346;BME280;2186;49.866;7.986;2023-02-28T04:59:17;101312.38;;;-0.56;89.15
4346;BME280;2186;49.866;7.986;2023-02-28T05:01:48;101315.00;;;-0.56;88.60
4346;BME280;2186;49.866;7.986;2023-02-28T05:04:15;101314.66;;;-0.67;88.87
4346;BME280;2186;49.866;7.986;2023-02-28T05:06:42;101307.16;;;-0.56;88.94
4346;BME280;2186;49.866;7.986;2023-02-28T05:09:09;101313.56;;;-0.73;89.06
4346;BME280;2186;49.866;7.986;2023-02-28T05:11:37;101311.84;;;-0.73;88.69
4346;BME280;2186;49.866;7.986;2023-02-28T05:14:09;101322.28;;;-0.73;88.88
4346;BME280;2186;49.866;7.986;2023-02-28T05:16:36;101319.75;;;-0.70;88.85
4346;BME280;2186;49.866;7.986;2023-02-28T05:19:03;101318.50;;;-0.55;87.90
4346;BME280;2186;49.866;7.986;2023-02-28T05:21:35;101323.56;;;-0.60;88.05
4346;BME280;2186;49.866;7.986;2023-02-28T05:24:04;101321.25;;;-0.78;88.26
4346;BME280;2186;49.866;7.986;2023-02-28T05:26:34;101321.06;;;-0.82;88.79
4346;BME280;2186;49.866;7.986;2023-02-28T05:29:01;101321.28;;;-0.76;88.82
4346;BME280;2186;49.866;7.986;2023-02-28T05:31:28;101313.97;;;-0.86;88.42
4346;BME280;2186;49.866;7.986;2023-02-28T05:33:55;101322.13;;;-0.77;88.91
4346;BME280;2186;49.866;7.986;2023-02-28T05:36:22;101320.47;;;-0.75;87.66
4346;BME280;2186;49.866;7.986;2023-02-28T05:38:50;101319.63;;;-0.74;88.05
4346;BME280;2186;49.866;7.986;2023-02-28T05:41:18;101328.28;;;-0.75;88.03
4346;BME280;2186;49.866;7.986;2023-02-28T05:43:46;101325.06;;;-0.68;87.56
4346;BME280;2186;49.866;7.986;2023-02-28T05:46:13;101328.44;;;-0.71;87.75
4346;BME280;2186;49.866;7.986;2023-02-28T05:48:42;101325.69;;;-0.75;87.97
4346;BME280;2186;49.866;7.986;2023-02-28T05:51:09;101330.06;;;-0.74;87.80
4346;BME280;2186;49.866;7.986;2023-02-28T05:53:35;101336.72;;;-0.82;87.89
4346;BME280;2186;49.866;7.986;2023-02-28T05:56:03;101338.78;;;-0.74;87.36
4346;BME280;2186;49.866;7.986;2023-02-28T05:58:29;101327.50;;;-0.73;88.00
4346;BME280;2186;49.866;7.986;2023-02-28T06:00:58;101326.84;;;-0.67;87.07
4346;BME280;2186;49.866;7.986;2023-02-28T06:03:25;101332.81;;;-0.70;86.95
4346;BME280;2186;49.866;7.986;2023-02-28T06:05:52;101336.53;;;-0.63;86.74
4346;BME280;2186;49.866;7.986;2023-02-28T06:08:19;101329.28;;;-0.72;86.95
4346;BME280;2186;49.866;7.986;2023-02-28T06:10:45;101336.16;;;-0.74;87.07
4346;BME280;2186;49.866;7.986;2023-02-28T06:13:12;101329.31;;;-0.70;87.14
4346;BME280;2186;49.866;7.986;2023-02-28T06:15:39;101333.78;;;-0.68;86.98
4346;BME280;2186;49.866;7.986;2023-02-28T06:18:06;101336.06;;;-0.77;87.53
4346;BME280;2186;49.866;7.986;2023-02-28T06:20:33;101335.59;;;-0.65;87.61
4346;BME280;2186;49.866;7.986;2023-02-28T06:22:59;101323.16;;;-0.72;87.88
4346;BME280;2186;49.866;7.986;2023-02-28T06:25:27;101335.97;;;-0.80;87.52
4346;BME280;2186;49.866;7.986;2023-02-28T06:27:54;101335.50;;;-0.68;87.31
4346;BME280;2186;49.866;7.986;2023-02-28T06:30:21;101334.50;;;-0.72;87.58
4346;BME280;2186;49.866;7.986;2023-02-28T06:32:53;101345.94;;;-0.68;87.51
4346;BME280;2186;49.866;7.986;2023-02-28T06:35:21;101335.50;;;-0.68;86.94
4346;BME280;2186;49.866;7.986;2023-02-28T06:37:47;101341.84;;;-0.60;86.39
4346;BME280;2186;49.866;7.986;2023-02-28T06:40:14;101342.25;;;-0.48;86.75
4346;BME280;2186;49.866;7.986;2023-02-28T06:42:41;101338.06;;;-0.43;85.53
4346;BME280;2186;49.866;7.986;2023-02-28T06:45:09;101350.09;;;-0.48;85.84
4346;BME280;2186;49.866;7.986;2023-02-28T06:47:40;101353.78;;;-0.41;85.84
4346;BME280;2186;49.866;7.986;2023-02-28T06:50:10;101355.63;;;-0.39;85.57
4346;BME280;2186;49.866;7.986;2023-02-28T06:52:37;101357.88;;;-0.49;86.19
4346;BME280;2186;49.866;7.986;2023-02-28T06:55:07;101356.38;;;-0.41;85.91
4346;BME280;2186;49.866;7.986;2023-02-28T06:57:35;101362.63;;;-0.38;86.22
4346;BME280;2186;49.866;7.986;2023-02-28T07:00:07;101363.97;;;-0.23;86.05
4346;BME280;2186;49.866;7.986;2023-02-28T07:02:37;101363.13;;;-0.22;85.45
4346;BME280;2186;49.866;7.986;2023-02-28T07:05:05;101375.81;;;-0.33;86.22
4346;BME280;2186;49.866;7.986;2023-02-28T07:07:32;101371.56;;;-0.03;84.67
4346;BME280;2186;49.866;7.986;2023-02-28T07:09:58;101372.19;;;0.16;84.01
4346;BME280;2186;49.866;7.986;2023-02-28T07:12:25;101362.81;;;0.24;84.32
4346;BME280;2186;49.866;7.986;2023-02-28T07:14:51;101368.81;;;0.20;84.05
4346;BME280;2186;49.866;7.986;2023-02-28T07:17:18;101365.72;;;0.33;84.26
4346;BME280;2186;49.866;7.986;2023-02-28T07:19:44;101372.34;;;0.22;84.59
4346;BME280;2186;49.866;7.986;2023-02-28T07:22:11;101367.38;;;0.29;84.01
4346;BME280;2186;49.866;7.986;2023-02-28T07:24:40;101354.47;;;0.36;83.10
4346;BME280;2186;49.866;7.986;2023-02-28T07:27:07;101363.56;;;0.48;82.68
4346;BME280;2186;49.866;7.986;2023-02-28T07:29:33;101366.25;;;0.51;83.05
4346;BME280;2186;49.866;7.986;2023-02-28T07:32:00;101367.53;;;0.66;81.92
4346;BME280;2186;49.866;7.986;2023-02-28T07:34:26;101371.16;;;0.69;81.39
4346;BME280;2186;49.866;7.986;2023-02-28T07:36:53;101367.31;;;0.88;80.35
4346;BME280;2186;49.866;7.986;2023-02-28T07:39:21;101364.59;;;0.83;80.70
4346;BME280;2186;49.866;7.986;2023-02-28T07:41:48;101370.88;;;0.90;79.81
4346;BME280;2186;49.866;7.986;2023-02-28T07:44:14;101367.47;;;0.94;80.21
4346;BME280;2186;49.866;7.986;2023-02-28T07:46:41;101368.66;;;1.05;78.91
4346;BME280;2186;49.866;7.986;2023-02-28T07:49:08;101368.19;;;1.20;77.69
4346;BME280;2186;49.866;7.986;2023-02-28T07:51:34;101376.38;;;1.32;77.45
4346;BME280;2186;49.866;7.986;2023-02-28T07:54:01;101375.50;;;1.32;76.15
4346;BME280;2186;49.866;7.986;2023-02-28T07:56:27;101368.00;;;1.45;76.61
4346;BME280;2186;49.866;7.986;2023-02-28T07:58:54;101377.47;;;1.40;75.17
4346;BME280;2186;49.866;7.986;2023-02-28T08:01:21;101380.03;;;1.37;75.52
4346;BME280;2186;49.866;7.986;2023-02-28T08:03:48;101378.38;;;1.41;75.17
4346;BME280;2186;49.866;7.986;2023-02-28T08:06:17;101372.03;;;1.33;74.95
4346;BME280;2186;49.866;7.986;2023-02-28T08:08:44;101382.22;;;1.55;75.21
4346;BME280;2186;49.866;7.986;2023-02-28T08:11:11;101373.16;;;1.77;74.86
4346;BME280;2186;49.866;7.986;2023-02-28T08:13:37;101376.28;;;1.62;74.17
4346;BME280;2186;49.866;7.986;2023-02-28T08:16:04;101380.75;;;1.66;73.35
4346;BME280;2186;49.866;7.986;2023-02-28T08:18:32;101377.47;;;1.75;73.36
4346;BME280;2186;49.866;7.986;2023-02-28T08:20:59;101368.91;;;1.82;74.29
4346;BME280;2186;49.866;7.986;2023-02-28T08:23:26;101377.94;;;1.93;72.96
4346;BME280;2186;49.866;7.986;2023-02-28T08:25:55;101384.84;;;1.91;72.09
4346;BME280;2186;49.866;7.986;2023-02-28T08:28:23;101386.22;;;1.75;71.88
4346;BME280;2186;49.866;7.986;2023-02-28T08:30:52;101378.31;;;1.74;72.22
4346;BME280;2186;49.866;7.986;2023-02-28T08:33:18;101384.41;;;1.73;72.51
4346;BME280;2186;49.866;7.986;2023-02-28T08:35:45;101386.91;;;1.67;72.05
4346;BME280;2186;49.866;7.986;2023-02-28T08:38:11;101386.00;;;1.66;73.47
4346;BME280;2186;49.866;7.986;2023-02-28T08:40:38;101392.88;;;1.63;72.92
4346;BME280;2186;49.866;7.986;2023-02-28T08:43:05;101376.97;;;1.55;71.90
4346;BME280;2186;49.866;7.986;2023-02-28T08:45:31;101392.31;;;1.74;72.50
4346;BME280;2186;49.866;7.986;2023-02-28T08:47:58;101382.16;;;1.88;73.02
4346;BME280;2186;49.866;7.986;2023-02-28T08:50:24;101394.06;;;2.10;72.09
4346;BME280;2186;49.866;7.986;2023-02-28T08:52:51;101391.03;;;1.93;72.20
4346;BME280;2186;49.866;7.986;2023-02-28T08:55:17;101383.25;;;1.96;72.22
4346;BME280;2186;49.866;7.986;2023-02-28T08:57:44;101381.59;;;2.01;72.04
4346;BME280;2186;49.866;7.986;2023-02-28T09:00:11;101392.94;;;2.00;72.05
4346;BME280;2186;49.866;7.986;2023-02-28T09:02:40;101387.75;;;2.03;71.98
4346;BME280;2186;49.866;7.986;2023-02-28T09:05:09;101391.31;;;2.05;72.04
4346;BME280;2186;49.866;7.986;2023-02-28T09:07:35;101394.44;;;2.27;70.53
4346;BME280;2186;49.866;7.986;2023-02-28T09:10:02;101395.78;;;2.10;70.64
4346;BME280;2186;49.866;7.986;2023-02-28T09:12:32;101394.78;;;2.04;70.63
4346;BME280;2186;49.866;7.986;2023-02-28T09:14:59;101397.00;;;2.24;70.04
4346;BME280;2186;49.866;7.986;2023-02-28T09:17:26;101383.94;;;2.27;70.72
4346;BME280;2186;49.866;7.986;2023-02-28T09:19:56;101385.75;;;2.29;69.94
4346;BME280;2186;49.866;7.986;2023-02-28T09:22:23;101380.75;;;2.40;70.38
4346;BME280;2186;49.866;7.986;2023-02-28T09:24:49;101391.63;;;2.58;69.67
4346;BME280;2186;49.866;7.986;2023-02-28T09:27:16;101381.66;;;2.83;70.19
4346;BME280;2186;49.866;7.986;2023-02-28T09:29:43;101389.44;;;2.78;67.91
4346;BME280;2186;49.866;7.986;2023-02-28T09:32:09;101392.63;;;3.06;68.05
4346;BME280;2186;49.866;7.986;2023-02-28T09:34:37;101373.69;;;3.22;67.06
4346;BME280;2186;49.866;7.986;2023-02-28T09:37:04;101375.47;;;3.24;65.86
4346;BME280;2186;49.866;7.986;2023-02-28T09:39:30;101380.22;;;3.44;64.22
4346;BME280;2186;49.866;7.986;2023-02-28T09:41:58;101383.34;;;3.23;63.29
4346;BME280;2186;49.866;7.986;2023-02-28T09:44:43;101382.44;;;3.22;61.80
4346;BME280;2186;49.866;7.986;2023-02-28T09:47:16;101388.81;;;3.35;62.59
4346;BME280;2186;49.866;7.986;2023-02-28T09:49:46;101389.88;;;3.00;62.38
4346;BME280;2186;49.866;7.986;2023-02-28T09:52:17;101384.78;;;3.07;63.15
4346;BME280;2186;49.866;7.986;2023-02-28T09:54:45;101395.91;;;3.41;62.63
4346;BME280;2186;49.866;7.986;2023-02-28T09:57:35;101384.00;;;3.60;62.83
4346;BME280;2186;49.866;7.986;2023-02-28T10:00:13;101391.94;;;3.63;60.43
4346;BME280;2186;49.866;7.986;2023-02-28T10:08:52;101371.00;;;3.69;60.04
4346;BME280;2186;49.866;7.986;2023-02-28T10:11:23;101387.41;;;3.55;59.16
4346;BME280;2186;49.866;7.986;2023-02-28T10:14:00;101388.72;;;3.80;58.85
4346;BME280;2186;49.866;7.986;2023-02-28T10:16:35;101384.06;;;3.63;57.02
4346;BME280;2186;49.866;7.986;2023-02-28T10:19:06;101387.78;;;3.75;58.42
4346;BME280;2186;49.866;7.986;2023-02-28T10:21:55;101383.72;;;3.97;57.31
4346;BME280;2186;49.866;7.986;2023-02-28T10:24:33;101386.75;;;3.67;57.11
4346;BME280;2186;49.866;7.986;2023-02-28T10:27:13;101382.28;;;3.62;56.97
4346;BME280;2186;49.866;7.986;2023-02-28T10:29:43;101384.72;;;4.02;57.75
4346;BME280;2186;49.866;7.986;2023-02-28T10:32:14;101381.44;;;4.19;56.48
4346;BME280;2186;49.866;7.986;2023-02-28T10:34:42;101384.06;;;4.19;55.55
4346;BME280;2186;49.866;7.986;2023-02-28T10:37:13;101373.44;;;4.11;54.66
4346;BME280;2186;49.866;7.986;2023-02-28T10:39:41;101393.28;;;3.91;54.72
4346;BME280;2186;49.866;7.986;2023-02-28T10:42:25;101375.75;;;3.91;55.00
4346;BME280;2186;49.866;7.986;2023-02-28T10:45:13;101392.88;;;3.68;55.40
4346;BME280;2186;49.866;7.986;2023-02-28T10:53:07;101386.88;;;3.73;56.15
4346;BME280;2186;49.866;7.986;2023-02-28T10:55:34;101379.88;;;3.75;56.11
4346;BME280;2186;49.866;7.986;2023-02-28T10:58:01;101379.22;;;3.89;56.72
4346;BME280;2186;49.866;7.986;2023-02-28T11:00:33;101376.16;;;4.17;56.11
4346;BME280;2186;49.866;7.986;2023-02-28T11:03:00;101365.03;;;4.38;56.42
4346;BME280;2186;49.866;7.986;2023-02-28T11:05:32;101365.91;;;4.35;55.52
4346;BME280;2186;49.866;7.986;2023-02-28T11:08:16;101371.28;;;3.84;55.45
4346;BME280;2186;49.866;7.986;2023-02-28T11:10:53;101363.72;;;4.05;56.14
4346;BME280;2186;49.866;7.986;2023-02-28T11:13:21;101360.81;;;4.49;56.31
4346;BME280;2186;49.866;7.986;2023-02-28T11:15:53;101362.22;;;4.24;55.98
4346;BME280;2186;49.866;7.986;2023-02-28T11:18:43;101361.06;;;4.04;56.97
4346;BME280;2186;49.866;7.986;2023-02-28T11:21:19;101352.91;;;3.85;56.47
4346;BME280;2186;49.866;7.986;2023-02-28T11:23:49;101356.06;;;4.22;56.26
4346;BME280;2186;49.866;7.986;2023-02-28T11:26:39;101341.28;;;4.32;55.72
4346;BME280;2186;49.866;7.986;2023-02-28T11:31:38;101357.50;;;4.00;56.71
4346;BME280;2186;49.866;7.986;2023-02-28T11:34:23;101357.53;;;4.02;55.17
4346;BME280;2186;49.866;7.986;2023-02-28T11:36:51;101348.22;;;4.25;54.76
4346;BME280;2186;49.866;7.986;2023-02-28T11:39:19;101343.09;;;4.36;54.09
4346;BME280;2186;49.866;7.986;2023-02-28T11:47:15;101342.41;;;4.51;53.31
4346;BME280;2186;49.866;7.986;2023-02-28T11:50:04;101338.06;;;4.53;52.23
4346;BME280;2186;49.866;7.986;2023-02-28T11:52:51;101332.31;;;4.86;51.84
4346;BME280;2186;49.866;7.986;2023-02-28T11:55:36;101332.22;;;4.80;52.71
4346;BME280;2186;49.866;7.986;2023-02-28T11:58:16;101329.47;;;4.67;52.64
4346;BME280;2186;49.866;7.986;2023-02-28T12:03:39;101335.31;;;4.43;53.70
4346;BME280;2186;49.866;7.986;2023-02-28T12:06:18;101333.00;;;4.68;54.10
4346;BME280;2186;49.866;7.986;2023-02-28T12:09:02;101341.84;;;4.76;52.64
4346;BME280;2186;49.866;7.986;2023-02-28T12:11:39;101332.13;;;4.67;51.66
4346;BME280;2186;49.866;7.986;2023-02-28T12:25:58;101326.53;;;5.19;51.01
4346;BME280;2186;49.866;7.986;2023-02-28T12:28:33;101317.66;;;5.08;50.09
4346;BME280;2186;49.866;7.986;2023-02-28T12:31:24;101310.78;;;5.25;50.22
4346;BME280;2186;49.866;7.986;2023-02-28T12:33:53;101315.16;;;5.23;49.66
4346;BME280;2186;49.866;7.986;2023-02-28T12:36:20;101314.78;;;4.89;49.66
4346;BME280;2186;49.866;7.986;2023-02-28T12:39:08;101321.09;;;5.03;50.04
4346;BME280;2186;49.866;7.986;2023-02-28T12:41:42;101321.09;;;5.03;49.77
4346;BME280;2186;49.866;7.986;2023-02-28T12:44:26;101335.88;;;4.89;49.96
4346;BME280;2186;49.866;7.986;2023-02-28T12:46:59;101312.16;;;4.88;49.75
4346;BME280;2186;49.866;7.986;2023-02-28T12:52:18;101307.41;;;5.41;49.58
4346;BME280;2186;49.866;7.986;2023-02-28T12:54:51;101310.28;;;5.67;50.76
4346;BME280;2186;49.866;7.986;2023-02-28T13:00:14;101309.41;;;5.68;47.29
4346;BME280;2186;49.866;7.986;2023-02-28T13:10:49;101292.03;;;5.91;48.06
4346;BME280;2186;49.866;7.986;2023-02-28T13:13:25;101306.00;;;5.84;49.57
4346;BME280;2186;49.866;7.986;2023-02-28T13:18:31;101297.34;;;6.02;49.96
4346;BME280;2186;49.866;7.986;2023-02-28T13:21:00;101305.03;;;5.73;48.19
4346;BME280;2186;49.866;7.986;2023-02-28T13:26:04;101287.50;;;5.81;48.73
4346;BME280;2186;49.866;7.986;2023-02-28T13:29:04;101296.31;;;5.85;48.39
4346;BME280;2186;49.866;7.986;2023-02-28T13:37:36;101302.63;;;6.02;49.42
4346;BME280;2186;49.866;7.986;2023-02-28T13:47:41;101290.16;;;5.86;48.33
4346;BME280;2186;49.866;7.986;2023-02-28T13:55:56;101296.44;;;6.00;48.87
4346;BME280;2186;49.866;7.986;2023-02-28T13:58:43;101284.19;;;6.07;48.26
4346;BME280;2186;49.866;7.986;2023-02-28T14:06:59;101290.44;;;6.18;48.70
4346;BME280;2186;49.866;7.986;2023-02-28T14:09:34;101285.09;;;6.09;47.86
4346;BME280;2186;49.866;7.986;2023-02-28T14:18:17;101282.47;;;6.16;48.25
4346;BME280;2186;49.866;7.986;2023-02-28T14:20:47;101275.22;;;5.85;47.63
4346;BME280;2186;49.866;7.986;2023-02-28T14:23:25;101277.16;;;6.04;48.50
4346;BME280;2186;49.866;7.986;2023-02-28T14:26:02;101283.19;;;5.89;48.20
4346;BME280;2186;49.866;7.986;2023-02-28T14:34:26;101281.50;;;6.02;48.77
4346;BME280;2186;49.866;7.986;2023-02-28T14:37:00;101275.22;;;5.86;47.47
4346;BME280;2186;49.866;7.986;2023-02-28T14:39:29;101277.16;;;6.12;48.43
4346;BME280;2186;49.866;7.986;2023-02-28T14:41:59;101271.03;;;6.16;48.17
4346;BME280;2186;49.866;7.986;2023-02-28T14:44:31;101263.09;;;6.10;49.02
4346;BME280;2186;49.866;7.986;2023-02-28T14:47:00;101263.94;;;6.04;49.27
4346;BME280;2186;49.866;7.986;2023-02-28T14:49:37;101266.63;;;6.13;49.05
4346;BME280;2186;49.866;7.986;2023-02-28T14:52:21;101256.13;;;6.22;49.24
4346;BME280;2186;49.866;7.986;2023-02-28T14:54:53;101258.69;;;6.09;47.97
4346;BME280;2186;49.866;7.986;2023-02-28T14:57:32;101250.78;;;6.09;48.04
4346;BME280;2186;49.866;7.986;2023-02-28T15:00:14;101258.69;;;6.10;48.62
4346;BME280;2186;49.866;7.986;2023-02-28T15:02:41;101260.38;;;5.98;48.96
4346;BME280;2186;49.866;7.986;2023-02-28T15:07:45;101255.13;;;6.02;49.43
4346;BME280;2186;49.866;7.986;2023-02-28T15:12:53;101249.88;;;6.07;49.22
4346;BME280;2186;49.866;7.986;2023-02-28T15:15:20;101250.78;;;6.12;49.68
4346;BME280;2186;49.866;7.986;2023-02-28T15:18:02;101249.00;;;6.06;49.01
4346;BME280;2186;49.866;7.986;2023-02-28T15:20:32;101258.69;;;6.13;49.22
4346;BME280;2186;49.866;7.986;2023-02-28T15:22:59;101258.59;;;5.90;49.43
4346;BME280;2186;49.866;7.986;2023-02-28T15:25:26;101265.66;;;5.99;49.94
4346;BME280;2186;49.866;7.986;2023-02-28T15:27:55;101264.75;;;5.94;50.76
4346;BME280;2186;49.866;7.986;2023-02-28T15:30:29;101260.19;;;5.72;50.34
4346;BME280;2186;49.866;7.986;2023-02-28T15:33:05;101275.19;;;5.82;49.61
4346;BME280;2186;49.866;7.986;2023-02-28T15:35:35;101268.09;;;5.70;49.77